createdAt,value
2023-04-16T00:02:41.939Z,13.83
2023-04-16T00:05:43.485Z,13.30
2023-04-16T00:08:44.921Z,13.60
2023-04-16T00:11:46.382Z,13.60
2023-04-16T00:14:49.102Z,12.87
2023-04-16T00:17:50.680Z,12.48
2023-04-16T00:20:52.134Z,12.88
2023-04-16T00:23:53.613Z,13.20
2023-04-16T00:26:55.916Z,13.40
2023-04-16T00:32:58.789Z,13.52
2023-04-16T00:36:00.369Z,13.43
2023-04-16T00:39:02.031Z,13.20
2023-04-16T00:42:03.593Z,14.00
2023-04-16T00:45:05.872Z,14.40
2023-04-16T00:51:09.067Z,14.60
2023-04-16T00:54:10.740Z,13.73
2023-04-16T00:57:14.438Z,15.50
2023-04-16T01:00:16.295Z,13.60
2023-04-16T01:03:17.876Z,14.82
2023-04-16T01:06:19.450Z,14.30
2023-04-16T01:09:20.913Z,14.23
2023-04-16T01:12:22.503Z,13.67
2023-04-16T01:15:23.977Z,14.73
2023-04-16T01:18:26.233Z,14.77
2023-04-16T01:24:29.115Z,14.95
2023-04-16T01:27:31.173Z,14.30
2023-04-16T01:30:32.837Z,16.13
2023-04-16T01:33:44.564Z,16.00
2023-04-16T01:39:48.262Z,15.70
2023-04-16T01:42:49.717Z,16.50
2023-04-16T01:45:53.773Z,16.70
2023-04-16T01:48:55.444Z,16.42
2023-04-16T01:51:56.919Z,16.70
2023-04-16T01:54:58.401Z,17.70
2023-04-16T01:57:59.820Z,17.40
2023-04-16T02:01:05.835Z,18.05
2023-04-16T02:04:08.208Z,17.67
2023-04-16T02:07:10.309Z,16.98
2023-04-16T02:10:11.752Z,17.52
2023-04-16T02:13:15.570Z,18.25
2023-04-16T02:16:18.538Z,17.30
2023-04-16T02:19:28.807Z,17.58
2023-04-16T02:22:30.514Z,17.02
2023-04-16T02:25:32.840Z,17.00
2023-04-16T02:28:34.378Z,17.02
2023-04-16T02:31:36.193Z,18.00
2023-04-16T02:34:40.105Z,16.67
2023-04-16T02:37:41.726Z,16.45
2023-04-16T02:40:43.810Z,17.70
2023-04-16T02:43:45.845Z,17.92
2023-04-16T02:46:47.275Z,17.33
2023-04-16T02:49:48.786Z,17.50
2023-04-16T02:52:51.472Z,17.07
2023-04-16T02:55:54.531Z,17.48
2023-04-16T02:58:56.306Z,17.73
2023-04-16T03:01:58.167Z,17.48
2023-04-16T03:04:59.824Z,17.02
2023-04-16T03:08:01.253Z,17.33
2023-04-16T03:11:02.718Z,17.57
2023-04-16T03:14:04.106Z,17.13
2023-04-16T03:17:05.697Z,17.93
2023-04-16T03:20:07.945Z,18.92
2023-04-16T03:23:09.474Z,18.60
2023-04-16T03:26:10.935Z,17.60
2023-04-16T03:29:12.478Z,17.77
2023-04-16T03:32:13.919Z,17.87
2023-04-16T03:35:15.850Z,17.97
2023-04-16T03:38:17.583Z,18.15
2023-04-16T03:41:19.518Z,18.67
2023-04-16T03:44:21.317Z,19.30
2023-04-16T03:47:22.819Z,18.27
2023-04-16T03:50:27.923Z,18.40
2023-04-16T03:53:29.827Z,18.52
2023-04-16T03:56:31.291Z,18.65
2023-04-16T03:59:32.742Z,17.77
2023-04-16T04:05:41.081Z,17.45
2023-04-16T04:08:44.712Z,19.35
2023-04-16T04:11:48.265Z,18.65
2023-04-16T04:14:49.931Z,17.98
2023-04-16T04:17:51.442Z,18.23
2023-04-16T04:20:53.038Z,18.75
2023-04-16T04:23:58.351Z,18.77
2023-04-16T04:26:59.766Z,19.23
2023-04-16T04:30:04.241Z,18.98
2023-04-16T04:33:06.846Z,17.83
2023-04-16T04:36:08.347Z,18.85
2023-04-16T04:39:11.623Z,18.48
2023-04-16T04:42:18.952Z,18.60
2023-04-16T04:45:20.700Z,19.25
2023-04-16T04:48:26.445Z,19.23
2023-04-16T04:51:28.411Z,17.73
2023-04-16T04:54:30.945Z,16.53
2023-04-16T04:57:32.377Z,17.05
2023-04-16T05:00:34.856Z,17.48
2023-04-16T05:03:36.473Z,17.60
2023-04-16T05:06:37.947Z,17.25
2023-04-16T05:09:39.362Z,16.60
2023-04-16T05:12:40.908Z,18.25
2023-04-16T05:15:42.467Z,17.33
2023-04-16T05:18:43.882Z,17.73
2023-04-16T05:21:45.308Z,16.67
2023-04-16T05:24:46.724Z,16.47
2023-04-16T05:27:48.175Z,17.50
2023-04-16T05:30:49.627Z,16.53
2023-04-16T05:33:51.058Z,16.80
2023-04-16T05:36:52.432Z,17.55
2023-04-16T05:39:54.107Z,18.57
2023-04-16T05:42:55.582Z,20.38
2023-04-16T05:45:57.025Z,20.60
2023-04-16T05:48:58.481Z,19.95
2023-04-16T05:51:59.928Z,20.27
2023-04-16T05:55:01.806Z,15.83
2023-04-16T05:58:06.219Z,15.60
2023-04-16T06:01:07.654Z,14.93
2023-04-16T06:04:09.156Z,14.70
2023-04-16T06:07:10.746Z,14.82
2023-04-16T06:10:12.188Z,14.93
2023-04-16T06:13:13.725Z,12.53
2023-04-16T06:16:15.341Z,11.87
2023-04-16T06:19:16.862Z,12.75
2023-04-16T06:22:18.403Z,12.43
2023-04-16T06:25:19.823Z,12.73
2023-04-16T06:28:21.465Z,13.47
2023-04-16T06:31:22.999Z,13.02
2023-04-16T06:34:24.468Z,13.95
2023-04-16T06:37:25.879Z,13.07
2023-04-16T06:40:27.355Z,13.13
2023-04-16T06:43:29.817Z,13.97
2023-04-16T06:46:31.845Z,13.18
2023-04-16T06:49:33.306Z,12.68
2023-04-16T06:52:34.750Z,14.37
2023-04-16T06:55:36.242Z,15.07
2023-04-16T06:58:37.734Z,14.50
2023-04-16T07:01:39.229Z,14.60
2023-04-16T07:04:40.658Z,14.83
2023-04-16T07:07:42.056Z,14.87
2023-04-16T07:10:43.654Z,15.90
2023-04-16T07:13:45.163Z,14.47
2023-04-16T07:16:46.648Z,15.23
2023-04-16T07:19:48.140Z,15.15
2023-04-16T07:22:49.686Z,13.83
2023-04-16T07:25:51.203Z,14.00
2023-04-16T07:28:52.672Z,14.68
2023-04-16T07:31:54.160Z,14.03
2023-04-16T07:34:56.149Z,14.47
2023-04-16T07:37:57.610Z,14.52
2023-04-16T07:40:59.113Z,14.63
2023-04-16T07:44:00.605Z,14.90
2023-04-16T07:47:03.549Z,15.03
2023-04-16T07:50:08.038Z,14.65
2023-04-16T07:53:09.663Z,15.68
2023-04-16T07:56:11.364Z,13.77
2023-04-16T07:59:21.719Z,14.40
2023-04-16T08:02:24.818Z,16.15
2023-04-16T08:05:26.714Z,14.00
2023-04-16T08:08:29.027Z,14.48
2023-04-16T08:11:30.686Z,12.75
2023-04-16T08:14:32.111Z,14.35
2023-04-16T08:17:34.425Z,14.77
2023-04-16T08:23:37.314Z,13.18
2023-04-16T08:26:38.798Z,14.80
2023-04-16T08:29:40.248Z,13.40
2023-04-16T08:32:42.353Z,13.37
2023-04-16T08:35:43.814Z,13.75
2023-04-16T08:38:45.398Z,13.33
2023-04-16T08:41:47.615Z,14.02
2023-04-16T08:44:50.292Z,14.02
2023-04-16T08:47:52.993Z,14.27
2023-04-16T08:50:55.029Z,14.63
2023-04-16T08:54:04.209Z,17.13
2023-04-16T08:57:06.508Z,16.45
2023-04-16T09:03:11.170Z,15.43
2023-04-16T09:06:13.531Z,15.52
2023-04-16T09:12:17.555Z,17.50
2023-04-16T09:15:20.547Z,16.00
2023-04-16T09:18:22.016Z,15.73
2023-04-16T09:21:24.095Z,16.00
2023-04-16T09:24:25.946Z,14.95
2023-04-16T09:27:28.160Z,15.13
2023-04-16T09:30:29.760Z,14.52
2023-04-16T09:33:32.378Z,16.38
2023-04-16T09:36:36.468Z,16.02
2023-04-16T09:39:37.999Z,15.15
2023-04-16T09:42:39.392Z,16.25
2023-04-16T09:45:54.281Z,16.93
2023-04-16T09:48:55.807Z,14.85
2023-04-16T09:51:59.613Z,15.45
2023-04-16T09:55:01.015Z,15.25
2023-04-16T09:58:02.474Z,14.67
2023-04-16T10:01:07.940Z,15.10
2023-04-16T10:04:09.463Z,15.07
2023-04-16T10:07:11.057Z,15.68
2023-04-16T10:10:12.791Z,15.80
2023-04-16T10:13:17.535Z,16.33
2023-04-16T10:16:19.094Z,15.98
2023-04-16T10:19:20.781Z,15.80
2023-04-16T10:22:22.289Z,14.68
2023-04-16T10:25:24.342Z,15.20
2023-04-16T10:28:25.972Z,15.02
2023-04-16T10:31:28.390Z,15.70
2023-04-16T10:34:31.244Z,13.98
2023-04-16T10:37:33.088Z,14.20
2023-04-16T10:40:35.129Z,13.80
2023-04-16T10:43:41.129Z,14.68
2023-04-16T10:46:44.550Z,14.65
2023-04-16T10:49:48.070Z,14.15
2023-04-16T10:52:49.478Z,15.38
2023-04-16T10:55:58.542Z,14.70
2023-04-16T10:59:00.292Z,14.88
2023-04-16T11:02:07.456Z,14.50
2023-04-16T11:05:09.604Z,14.27
2023-04-16T11:08:14.547Z,14.63
2023-04-16T11:11:16.368Z,14.60
2023-04-16T11:14:18.132Z,14.60
2023-04-16T11:17:21.178Z,14.17
2023-04-16T11:20:24.866Z,14.25
2023-04-16T11:23:26.359Z,13.02
2023-04-16T11:26:29.468Z,13.50
2023-04-16T11:29:31.001Z,12.85
2023-04-16T11:32:33.886Z,14.02
2023-04-16T11:35:35.680Z,13.80
2023-04-16T11:38:38.284Z,14.10
2023-04-16T11:41:47.493Z,12.95
2023-04-16T11:44:56.503Z,12.82
2023-04-16T11:47:58.039Z,13.88
2023-04-16T11:50:59.621Z,13.45
2023-04-16T11:54:02.030Z,13.53
2023-04-16T11:57:04.556Z,13.82
2023-04-16T12:00:10.673Z,13.70
2023-04-16T12:03:15.458Z,13.20
2023-04-16T12:06:17.006Z,13.43
2023-04-16T12:09:26.200Z,14.20
2023-04-16T12:12:32.258Z,13.35
2023-04-16T12:15:53.343Z,14.27
2023-04-16T12:19:03.805Z,13.85
2023-04-16T12:22:05.331Z,13.52
2023-04-16T12:25:15.424Z,14.27
2023-04-16T12:28:28.619Z,13.45
2023-04-16T12:31:38.949Z,13.38
2023-04-16T12:34:51.538Z,13.18
2023-04-16T12:37:52.966Z,12.85
2023-04-16T12:40:57.104Z,13.97
2023-04-16T12:44:05.018Z,13.05
2023-04-16T12:47:06.607Z,12.85
2023-04-16T12:50:08.268Z,14.35
2023-04-16T12:53:09.712Z,13.70
2023-04-16T12:56:11.187Z,13.80
2023-04-16T12:59:12.736Z,13.40
2023-04-16T13:02:14.344Z,15.70
2023-04-16T13:05:17.157Z,14.60
2023-04-16T13:08:18.596Z,15.23
2023-04-16T13:11:20.497Z,14.10
2023-04-16T13:14:22.052Z,13.43
2023-04-16T13:17:23.619Z,13.65
2023-04-16T13:20:25.261Z,13.18
2023-04-16T13:23:27.008Z,12.70
2023-04-16T13:26:28.465Z,13.40
2023-04-16T13:29:30.081Z,12.43
2023-04-16T13:32:31.827Z,12.65
2023-04-16T13:35:33.264Z,12.88
2023-04-16T13:38:34.662Z,13.47
2023-04-16T13:41:37.044Z,15.70
2023-04-16T13:44:38.549Z,13.73
2023-04-16T13:47:43.653Z,14.43
2023-04-16T13:50:45.448Z,14.15
2023-04-16T13:53:46.953Z,13.55
2023-04-16T13:56:50.165Z,12.70
2023-04-16T13:59:51.722Z,13.48
2023-04-16T14:02:53.858Z,12.18
2023-04-16T14:08:56.794Z,11.75
2023-04-16T14:11:58.218Z,12.80
2023-04-16T14:14:59.767Z,11.70
2023-04-16T14:18:01.784Z,12.95
2023-04-16T14:21:03.541Z,11.35
2023-04-16T14:24:05.452Z,12.75
2023-04-16T14:27:06.917Z,11.80
2023-04-16T14:30:08.919Z,10.98
2023-04-16T14:33:10.563Z,11.35
2023-04-16T14:36:12.052Z,12.07
2023-04-16T14:39:13.753Z,11.90
2023-04-16T14:42:15.391Z,12.18
2023-04-16T14:45:16.832Z,12.10
2023-04-16T14:48:18.298Z,11.87
2023-04-16T14:51:19.799Z,12.77
2023-04-16T14:54:21.397Z,12.43
2023-04-16T14:57:23.027Z,12.55
2023-04-16T15:00:24.508Z,10.67
2023-04-16T15:03:26.676Z,11.63
2023-04-16T15:06:28.464Z,12.60
2023-04-16T15:09:29.929Z,13.77
2023-04-16T15:12:31.367Z,11.73
2023-04-16T15:15:32.765Z,11.17
2023-04-16T15:18:34.308Z,10.77
2023-04-16T15:21:35.734Z,12.00
2023-04-16T15:24:37.185Z,9.27
2023-04-16T15:27:38.698Z,9.67
2023-04-16T15:30:41.312Z,10.65
2023-04-16T15:33:42.888Z,10.25
2023-04-16T15:36:44.400Z,11.65
2023-04-16T15:39:46.234Z,10.73
2023-04-16T15:42:48.068Z,10.27
2023-04-16T15:45:49.552Z,10.40
2023-04-16T15:48:51.031Z,10.70
2023-04-16T15:51:53.054Z,11.27
2023-04-16T15:54:54.887Z,12.02
2023-04-16T15:57:56.365Z,11.57
2023-04-16T16:00:57.828Z,12.17
2023-04-16T16:03:59.481Z,13.17
2023-04-16T16:07:02.747Z,11.80
2023-04-16T16:10:05.937Z,11.57
2023-04-16T16:13:12.033Z,12.98
2023-04-16T16:16:14.675Z,13.90
2023-04-16T16:22:20.630Z,14.48
2023-04-16T16:25:22.198Z,14.02
2023-04-16T16:28:24.968Z,16.60
2023-04-16T16:31:26.540Z,15.55
2023-04-16T16:34:28.237Z,13.80
2023-04-16T16:37:29.651Z,12.45
2023-04-16T16:40:31.136Z,13.80
2023-04-16T16:43:32.875Z,13.47
2023-04-16T16:46:34.654Z,12.77
2023-04-16T16:49:36.112Z,12.88
2023-04-16T16:52:38.291Z,12.93
2023-04-16T16:55:39.711Z,11.98
2023-04-16T16:58:41.696Z,12.00
2023-04-16T17:01:43.152Z,11.43
2023-04-16T17:04:44.842Z,11.07
2023-04-16T17:07:46.658Z,11.80
2023-04-16T17:10:48.230Z,12.18
2023-04-16T17:13:49.727Z,11.85
2023-04-16T17:16:51.272Z,19.93
2023-04-16T17:19:52.836Z,14.73
2023-04-16T17:22:54.251Z,11.80
2023-04-16T17:25:55.826Z,12.47
2023-04-16T17:28:59.170Z,11.93
2023-04-16T17:32:00.894Z,11.48
2023-04-16T17:35:04.176Z,12.45
2023-04-16T17:38:05.909Z,11.00
2023-04-16T17:41:07.355Z,12.68
2023-04-16T17:44:11.129Z,11.80
2023-04-16T17:47:13.250Z,12.02
2023-04-16T17:50:14.906Z,13.63
2023-04-16T17:53:16.613Z,13.57
2023-04-16T17:56:18.020Z,25.17
2023-04-16T17:59:19.555Z,14.33
2023-04-16T18:02:21.150Z,12.53
2023-04-16T18:05:22.741Z,12.10
2023-04-16T18:08:25.113Z,12.70
2023-04-16T18:14:30.039Z,12.48
2023-04-16T18:17:31.528Z,13.00
2023-04-16T18:20:33.425Z,13.15
2023-04-16T18:23:34.828Z,11.20
2023-04-16T18:26:36.484Z,12.30
2023-04-16T18:29:39.864Z,11.55
2023-04-16T18:32:58.920Z,12.13
2023-04-16T18:36:03.741Z,12.75
2023-04-16T18:39:05.862Z,12.18
2023-04-16T18:42:07.800Z,13.30
2023-04-16T18:45:13.657Z,13.07
2023-04-16T18:48:16.129Z,12.68
2023-04-16T18:51:17.583Z,12.70
2023-04-16T18:54:20.307Z,14.50
2023-04-16T18:57:21.723Z,14.32
2023-04-16T19:00:23.263Z,16.70
2023-04-16T19:03:27.019Z,15.90
2023-04-16T19:06:29.144Z,15.40
2023-04-16T19:09:30.871Z,14.15
2023-04-16T19:12:32.529Z,18.30
2023-04-16T19:15:34.864Z,20.55
2023-04-16T19:18:37.546Z,19.00
2023-04-16T19:21:38.976Z,17.10
2023-04-16T19:24:40.637Z,17.07
2023-04-16T19:27:42.132Z,17.33
2023-04-16T19:30:46.434Z,17.98
2023-04-16T19:33:47.880Z,19.45
2023-04-16T19:36:49.295Z,20.43
2023-04-16T19:39:50.798Z,19.07
2023-04-16T19:42:52.322Z,21.77
2023-04-16T19:45:54.243Z,21.47
2023-04-16T19:48:56.595Z,23.88
2023-04-16T19:54:59.440Z,25.17
2023-04-16T19:58:05.901Z,27.03
2023-04-16T20:01:11.355Z,26.90
2023-04-16T20:04:12.855Z,23.25
2023-04-16T20:07:14.278Z,20.93
2023-04-16T20:10:15.825Z,20.50
2023-04-16T20:13:18.594Z,21.87
2023-04-16T20:16:23.810Z,19.17
2023-04-16T20:19:29.936Z,20.02
2023-04-16T20:22:31.372Z,18.98
2023-04-16T20:25:32.800Z,20.17
2023-04-16T20:28:34.327Z,20.73
2023-04-16T20:31:35.745Z,20.93
2023-04-16T20:34:38.180Z,21.13
2023-04-16T20:40:44.999Z,20.90
2023-04-16T20:43:49.969Z,19.38
2023-04-16T20:46:54.878Z,19.52
2023-04-16T20:49:56.501Z,20.40
2023-04-16T20:52:57.970Z,20.03
2023-04-16T20:56:02.965Z,19.23
2023-04-16T20:59:04.469Z,19.63
2023-04-16T21:02:06.172Z,20.58
2023-04-16T21:05:10.383Z,20.08
2023-04-16T21:08:11.808Z,19.35
2023-04-16T21:11:13.293Z,19.30
2023-04-16T21:14:14.727Z,18.73
2023-04-16T21:17:16.305Z,19.43
2023-04-16T21:20:17.778Z,19.05
2023-04-16T21:23:19.211Z,18.53
2023-04-16T21:26:20.865Z,19.97
2023-04-16T21:29:23.469Z,18.42
2023-04-16T21:32:24.956Z,20.02
2023-04-16T21:35:26.646Z,19.77
2023-04-16T21:38:28.172Z,20.17
2023-04-16T21:41:29.625Z,20.67
2023-04-16T21:44:31.187Z,20.93
2023-04-16T21:47:32.677Z,22.53
2023-04-16T21:50:34.108Z,22.10
2023-04-16T21:53:36.778Z,22.10
2023-04-16T21:56:38.773Z,21.30
2023-04-16T21:59:40.313Z,21.27
2023-04-16T22:02:42.723Z,21.17
2023-04-16T22:05:45.829Z,20.70
2023-04-16T22:08:49.632Z,20.33
2023-04-16T22:11:52.372Z,20.70
2023-04-16T22:15:02.403Z,20.48
2023-04-16T22:18:04.514Z,21.13
2023-04-16T22:21:06.020Z,20.52
2023-04-16T22:24:07.544Z,21.07
2023-04-16T22:27:08.988Z,20.40
2023-04-16T22:30:10.884Z,21.58
2023-04-16T22:33:12.461Z,20.30
2023-04-16T22:36:13.906Z,20.50
2023-04-16T22:39:15.510Z,20.50
2023-04-16T22:42:17.208Z,20.27
2023-04-16T22:45:18.741Z,20.65
2023-04-16T22:48:20.159Z,19.70
2023-04-16T22:51:24.265Z,20.53
2023-04-16T22:54:29.785Z,20.73
2023-04-16T22:57:31.227Z,20.55
2023-04-16T23:00:32.910Z,22.20
2023-04-16T23:03:34.499Z,22.05
2023-04-16T23:06:36.145Z,22.50
2023-04-16T23:09:37.535Z,24.23
2023-04-16T23:12:39.101Z,23.63
2023-04-16T23:15:40.716Z,22.50
2023-04-16T23:18:42.224Z,21.65
2023-04-16T23:21:43.627Z,23.23
2023-04-16T23:24:45.749Z,22.23
2023-04-16T23:27:47.193Z,21.02
2023-04-16T23:30:52.728Z,20.83
2023-04-16T23:33:54.307Z,21.20
2023-04-16T23:36:55.766Z,21.67
2023-04-16T23:39:57.199Z,22.37
2023-04-16T23:42:58.791Z,22.17
2023-04-16T23:46:00.353Z,21.40
2023-04-16T23:49:01.909Z,21.73
2023-04-16T23:52:03.561Z,20.67
2023-04-16T23:55:05.326Z,20.73
2023-04-16T23:58:06.747Z,22.77
